Ayersville, North Carolina
Current Conditions -  °F | °C
As of 11:15 AM on Thursday 23 Oct 2014 (Local Time) from KSIF Reporting Station
Clear Clear  
Wind Chill: 60°   Ceiling: Unl
Heat Index: 60°   Visibility: 10mi
Dew Point: 42°   Wind: 7mph
Humidity: 53%   Direction: 310°NW
Pressure: 30.06"   Gusts: NA
Location:  36.4479°N, 79.9473°W
Report Text: KSIF 231515Z AUTO 31006KT 10SM CLR 15/06 A3006 RMK AO2 T01530058
Loading
Personal Weather Stations






























Interactive Weather Map
Tropical Storm Tracking
New forecast layout! Learn more

10-Day Weather Forecast

Advertisements
Track Severe Weather on mobile